createdAt,value
2022-10-18T00:00:11.923Z,0.00
2022-10-18T00:01:11.919Z,0.00
2022-10-18T00:02:12.010Z,0.00
2022-10-18T00:03:11.920Z,0.00
2022-10-18T00:04:11.914Z,0.00
2022-10-18T00:05:11.913Z,0.00
2022-10-18T00:06:11.916Z,0.00
2022-10-18T00:07:11.913Z,0.00
2022-10-18T00:08:11.906Z,0.00
2022-10-18T00:09:15.560Z,0.00
2022-10-18T00:10:11.907Z,0.00
2022-10-18T00:11:11.905Z,0.00
2022-10-18T00:12:11.904Z,0.00
2022-10-18T00:13:11.919Z,0.00
2022-10-18T00:14:11.900Z,0.00
2022-10-18T00:15:11.910Z,0.00
2022-10-18T00:16:11.894Z,0.00
2022-10-18T00:17:11.897Z,0.00
2022-10-18T00:18:11.892Z,0.00
2022-10-18T00:19:11.899Z,0.00
2022-10-18T00:20:11.902Z,0.00
2022-10-18T00:21:11.911Z,0.00
2022-10-18T00:22:11.892Z,0.00
2022-10-18T00:23:11.889Z,0.00
2022-10-18T00:24:11.891Z,0.00
2022-10-18T00:25:11.896Z,0.00
2022-10-18T00:26:11.892Z,0.00
2022-10-18T00:27:11.879Z,0.00
2022-10-18T00:28:11.892Z,0.00
2022-10-18T00:29:11.903Z,0.00
2022-10-18T00:30:11.879Z,0.00
2022-10-18T00:31:11.883Z,0.00
2022-10-18T00:32:11.886Z,0.00
2022-10-18T00:33:11.886Z,0.00
2022-10-18T00:34:11.885Z,0.00
2022-10-18T00:35:11.866Z,0.00
2022-10-18T00:36:11.871Z,0.00
2022-10-18T00:37:11.865Z,0.00
2022-10-18T00:38:11.930Z,0.00
2022-10-18T00:39:11.865Z,0.00
2022-10-18T00:40:11.878Z,0.00
2022-10-18T00:41:11.866Z,0.00
2022-10-18T00:42:11.868Z,0.00
2022-10-18T00:43:11.868Z,0.00
2022-10-18T00:44:11.862Z,0.00
2022-10-18T00:45:11.891Z,0.00
2022-10-18T00:46:11.870Z,0.00
2022-10-18T00:47:11.868Z,0.00
2022-10-18T00:48:11.852Z,0.00
2022-10-18T00:49:11.900Z,0.00
2022-10-18T00:50:11.852Z,0.00
2022-10-18T00:51:11.869Z,0.00
2022-10-18T00:52:11.866Z,0.00
2022-10-18T00:53:11.867Z,0.00
2022-10-18T00:54:11.862Z,0.00
2022-10-18T00:55:11.864Z,0.00
2022-10-18T00:56:11.851Z,0.00
2022-10-18T00:57:11.851Z,0.00
2022-10-18T00:58:11.878Z,0.00
2022-10-18T00:59:11.840Z,0.00
2022-10-18T01:00:11.842Z,0.00
2022-10-18T01:01:11.928Z,0.00
2022-10-18T01:02:11.929Z,0.00
2022-10-18T01:03:11.835Z,0.00
2022-10-18T01:04:11.849Z,0.00
2022-10-18T01:05:11.843Z,0.00
2022-10-18T01:06:11.851Z,0.00
2022-10-18T01:07:11.837Z,0.00
2022-10-18T01:08:11.841Z,0.00
2022-10-18T01:09:11.838Z,0.00
2022-10-18T01:10:11.837Z,0.00
2022-10-18T01:11:11.840Z,0.00
2022-10-18T01:12:11.826Z,0.00
2022-10-18T01:13:11.819Z,0.00
2022-10-18T01:14:11.821Z,0.00
2022-10-18T01:15:11.834Z,0.00
2022-10-18T01:16:11.836Z,0.00
2022-10-18T01:17:11.847Z,0.00
2022-10-18T01:18:11.849Z,0.00
2022-10-18T01:19:11.823Z,0.00
2022-10-18T01:20:11.838Z,0.00
2022-10-18T01:21:11.831Z,0.00
2022-10-18T01:22:11.812Z,0.00
2022-10-18T01:23:11.844Z,0.00
2022-10-18T01:24:11.813Z,0.00
2022-10-18T01:25:11.815Z,0.00
2022-10-18T01:26:11.871Z,0.00
2022-10-18T01:27:11.817Z,0.00
2022-10-18T01:28:11.815Z,0.00
2022-10-18T01:29:11.811Z,0.00
2022-10-18T01:30:11.814Z,0.00
2022-10-18T01:31:11.810Z,0.00
2022-10-18T01:32:11.801Z,0.00
2022-10-18T01:33:11.843Z,0.00
2022-10-18T01:34:11.808Z,0.00
2022-10-18T01:35:11.796Z,0.00
2022-10-18T01:36:11.837Z,0.00
2022-10-18T01:37:11.800Z,0.00
2022-10-18T01:38:11.791Z,0.00
2022-10-18T01:39:11.807Z,0.00
2022-10-18T01:40:11.803Z,0.00
2022-10-18T01:41:14.917Z,0.00
2022-10-18T01:42:11.806Z,0.00
2022-10-18T01:43:11.794Z,0.00
2022-10-18T01:44:11.794Z,0.00
2022-10-18T01:45:11.782Z,0.00
2022-10-18T01:46:11.788Z,0.00
2022-10-18T01:47:11.791Z,0.00
2022-10-18T01:48:11.787Z,0.00
2022-10-18T01:49:11.796Z,0.00
2022-10-18T01:50:11.779Z,0.00
2022-10-18T01:51:11.780Z,0.00
2022-10-18T01:52:11.785Z,0.00
2022-10-18T01:53:11.779Z,0.00
2022-10-18T01:54:11.784Z,0.00
2022-10-18T01:55:11.788Z,0.00
2022-10-18T01:56:11.772Z,0.00
2022-10-18T01:57:11.780Z,0.00
2022-10-18T01:58:11.788Z,0.00
2022-10-18T01:59:11.767Z,0.00
2022-10-18T02:00:11.768Z,0.00
2022-10-18T02:02:11.759Z,0.00
2022-10-18T02:03:11.762Z,0.00
2022-10-18T02:04:11.759Z,0.00
2022-10-18T02:05:11.780Z,0.00
2022-10-18T02:06:11.762Z,0.00
2022-10-18T02:07:11.767Z,0.00
2022-10-18T02:08:22.958Z,0.00
2022-10-18T02:09:11.758Z,0.00
2022-10-18T02:10:11.821Z,0.00
2022-10-18T02:11:11.764Z,0.00
2022-10-18T02:12:11.765Z,0.00
2022-10-18T02:13:11.760Z,0.00
2022-10-18T02:14:11.750Z,0.00
2022-10-18T02:15:11.753Z,0.00
2022-10-18T02:16:11.744Z,0.00
2022-10-18T02:17:11.747Z,0.00
2022-10-18T02:18:11.742Z,0.00
2022-10-18T02:19:11.777Z,0.00
2022-10-18T02:20:11.749Z,0.00
2022-10-18T02:21:11.763Z,0.00
2022-10-18T02:22:11.765Z,0.00
2022-10-18T02:23:11.736Z,0.00
2022-10-18T02:24:11.744Z,0.00
2022-10-18T02:25:11.747Z,0.00
2022-10-18T02:26:11.732Z,0.00
2022-10-18T02:27:11.732Z,0.00
2022-10-18T02:28:11.795Z,0.00
2022-10-18T02:29:11.732Z,0.00
2022-10-18T02:30:11.734Z,0.00
2022-10-18T02:31:11.726Z,0.00
2022-10-18T02:32:11.736Z,0.00
2022-10-18T02:33:11.735Z,0.00
2022-10-18T02:34:11.739Z,0.00
2022-10-18T02:35:11.726Z,0.00
2022-10-18T02:36:11.718Z,0.00
2022-10-18T02:37:11.740Z,0.00
2022-10-18T02:38:11.735Z,0.00
2022-10-18T02:39:11.720Z,0.00
2022-10-18T02:40:11.722Z,0.00
2022-10-18T02:41:11.720Z,0.00
2022-10-18T02:42:11.710Z,0.00
2022-10-18T02:43:11.714Z,0.00
2022-10-18T02:44:11.714Z,0.00
2022-10-18T02:45:11.717Z,0.00
2022-10-18T02:46:11.708Z,0.00
2022-10-18T02:47:11.707Z,0.00
2022-10-18T02:48:11.709Z,0.00
2022-10-18T02:49:11.703Z,0.00
2022-10-18T02:50:11.705Z,0.00
2022-10-18T02:51:11.703Z,0.00
2022-10-18T02:52:11.704Z,0.00
2022-10-18T02:53:11.729Z,0.00
2022-10-18T02:54:11.704Z,0.00
2022-10-18T02:55:11.703Z,0.00
2022-10-18T02:56:11.702Z,0.00
2022-10-18T02:57:11.703Z,0.00
2022-10-18T02:58:11.688Z,0.00
2022-10-18T02:59:11.687Z,0.00
2022-10-18T03:00:11.696Z,0.00
2022-10-18T03:01:11.757Z,0.00
2022-10-18T03:02:11.686Z,0.00
2022-10-18T03:03:11.688Z,0.00
2022-10-18T03:04:11.691Z,0.00
2022-10-18T03:05:11.684Z,0.00
2022-10-18T03:06:11.695Z,0.00
2022-10-18T03:07:11.684Z,0.00
2022-10-18T03:08:11.679Z,0.00
2022-10-18T03:09:11.708Z,0.00
2022-10-18T03:10:11.694Z,0.00
2022-10-18T03:11:11.671Z,0.00
2022-10-18T03:12:11.681Z,0.00
2022-10-18T03:13:11.683Z,0.00
2022-10-18T03:14:11.683Z,0.00
2022-10-18T03:15:11.671Z,0.00
2022-10-18T03:16:11.674Z,0.00
2022-10-18T03:17:11.682Z,0.00
2022-10-18T03:18:11.668Z,0.00
2022-10-18T03:19:11.664Z,0.00
2022-10-18T03:20:11.670Z,0.00
2022-10-18T03:21:11.680Z,0.00
2022-10-18T03:22:11.664Z,0.00
2022-10-18T03:23:11.670Z,0.00
2022-10-18T03:24:11.655Z,0.00
2022-10-18T03:25:11.677Z,0.00
2022-10-18T03:26:11.657Z,0.00
2022-10-18T03:27:11.653Z,0.00
2022-10-18T03:28:11.651Z,0.00
2022-10-18T03:29:11.737Z,0.00
2022-10-18T03:30:11.648Z,0.00
2022-10-18T03:31:11.650Z,0.00
2022-10-18T03:32:11.648Z,0.00
2022-10-18T03:33:11.653Z,0.00
2022-10-18T03:34:11.655Z,0.00
2022-10-18T03:35:11.650Z,0.00
2022-10-18T03:36:11.640Z,0.00
2022-10-18T03:37:11.657Z,0.00
2022-10-18T03:38:11.640Z,0.00
2022-10-18T03:39:11.649Z,0.00
2022-10-18T03:40:11.639Z,0.00
2022-10-18T03:41:11.665Z,0.00
2022-10-18T03:42:11.641Z,0.00
2022-10-18T03:43:11.633Z,0.00
2022-10-18T03:44:11.631Z,0.00
2022-10-18T03:45:11.642Z,0.00
2022-10-18T03:46:11.653Z,0.00
2022-10-18T03:47:11.631Z,0.00
2022-10-18T03:48:11.632Z,0.00
2022-10-18T03:49:11.630Z,0.00
2022-10-18T03:50:11.639Z,0.00
2022-10-18T03:51:11.642Z,0.00
2022-10-18T03:52:11.629Z,0.00
2022-10-18T03:53:11.624Z,0.00
2022-10-18T03:54:11.627Z,0.00
2022-10-18T03:55:11.621Z,0.00
2022-10-18T03:56:11.624Z,0.00
2022-10-18T03:57:11.643Z,0.00
2022-10-18T03:58:11.626Z,0.00
2022-10-18T03:59:11.619Z,0.00
2022-10-18T04:00:11.609Z,0.00
2022-10-18T04:01:11.634Z,0.00
2022-10-18T04:02:11.616Z,0.00
2022-10-18T04:03:11.626Z,0.00
2022-10-18T04:04:11.608Z,0.00
2022-10-18T04:05:11.606Z,0.00
2022-10-18T04:06:11.603Z,0.00
2022-10-18T04:07:11.610Z,0.00
2022-10-18T04:08:11.608Z,0.00
2022-10-18T04:09:11.612Z,0.00
2022-10-18T04:10:11.598Z,0.00
2022-10-18T04:11:11.603Z,0.00
2022-10-18T04:12:11.597Z,0.00
2022-10-18T04:13:11.622Z,0.00
2022-10-18T04:14:11.592Z,0.00
2022-10-18T04:15:11.604Z,0.00
2022-10-18T04:16:11.593Z,0.00
2022-10-18T04:17:11.604Z,0.00
2022-10-18T04:18:11.585Z,0.00
2022-10-18T04:19:11.588Z,0.00
2022-10-18T04:20:11.596Z,0.00
2022-10-18T04:21:11.598Z,0.00
2022-10-18T04:22:11.585Z,0.00
2022-10-18T04:23:11.587Z,0.00
2022-10-18T04:24:11.583Z,0.00
2022-10-18T04:25:11.578Z,0.00
2022-10-18T04:26:11.574Z,0.00
2022-10-18T04:27:11.588Z,0.00
2022-10-18T04:28:11.575Z,0.00
2022-10-18T04:29:11.613Z,0.00
2022-10-18T04:30:11.570Z,0.00
2022-10-18T04:31:11.600Z,0.00
2022-10-18T04:32:11.569Z,0.00
2022-10-18T04:33:11.570Z,0.00
2022-10-18T04:34:11.568Z,0.00
2022-10-18T04:35:11.565Z,0.00
2022-10-18T04:36:11.564Z,0.00
2022-10-18T04:37:11.566Z,0.00
2022-10-18T04:38:11.568Z,0.00
2022-10-18T04:39:11.558Z,0.00
2022-10-18T04:40:11.564Z,0.00
2022-10-18T04:41:11.571Z,0.00
2022-10-18T04:42:11.565Z,0.00
2022-10-18T04:43:11.551Z,0.00
2022-10-18T04:44:11.558Z,0.00
2022-10-18T04:45:11.565Z,0.00
2022-10-18T04:46:11.555Z,0.00
2022-10-18T04:47:11.591Z,0.00
2022-10-18T04:48:11.555Z,0.00
2022-10-18T04:49:11.554Z,0.00
2022-10-18T04:50:11.552Z,0.00
2022-10-18T04:51:11.552Z,0.00
2022-10-18T04:52:11.551Z,0.00
2022-10-18T04:53:11.549Z,0.00
2022-10-18T04:54:11.545Z,0.00
2022-10-18T04:55:11.537Z,0.00
2022-10-18T04:56:11.535Z,0.00
2022-10-18T04:57:11.545Z,0.00
2022-10-18T04:58:11.541Z,0.00
2022-10-18T04:59:11.552Z,0.00
2022-10-18T05:00:11.581Z,0.00
2022-10-18T05:01:11.598Z,0.00
2022-10-18T05:02:11.563Z,0.00
2022-10-18T05:03:11.558Z,0.00
2022-10-18T05:04:11.532Z,0.00
2022-10-18T05:05:14.007Z,0.00
2022-10-18T05:06:11.531Z,0.00
2022-10-18T05:07:11.553Z,0.00
2022-10-18T05:08:11.518Z,0.00
2022-10-18T05:09:11.529Z,0.00
2022-10-18T05:10:11.533Z,0.00
2022-10-18T05:11:11.535Z,0.00
2022-10-18T05:12:11.516Z,0.00
2022-10-18T05:13:11.523Z,0.00
2022-10-18T05:14:11.516Z,0.00
2022-10-18T05:15:11.518Z,0.00
2022-10-18T05:16:11.511Z,0.00
2022-10-18T05:17:11.524Z,0.00
2022-10-18T05:18:11.523Z,0.00
2022-10-18T05:19:11.528Z,0.00
2022-10-18T05:20:11.571Z,0.00
2022-10-18T05:21:11.510Z,0.00
2022-10-18T05:22:11.507Z,0.00
2022-10-18T05:23:11.505Z,0.00
2022-10-18T05:24:11.504Z,0.00
2022-10-18T05:25:11.501Z,0.00
2022-10-18T05:26:11.499Z,0.00
2022-10-18T05:27:11.504Z,0.00
2022-10-18T05:28:34.555Z,0.00
2022-10-18T05:29:11.653Z,0.00
2022-10-18T05:30:11.497Z,0.00
2022-10-18T05:31:11.502Z,0.00
2022-10-18T05:32:11.487Z,0.00
2022-10-18T05:33:11.498Z,0.00
2022-10-18T05:34:11.492Z,0.00
2022-10-18T05:35:11.519Z,0.00
2022-10-18T05:36:11.488Z,4.00
2022-10-18T05:37:11.491Z,4.00
2022-10-18T05:38:11.485Z,4.00
2022-10-18T05:39:11.489Z,4.00
2022-10-18T05:40:11.482Z,4.00
2022-10-18T05:41:11.479Z,4.00
2022-10-18T05:42:11.489Z,4.00
2022-10-18T05:43:11.489Z,4.00
2022-10-18T05:44:11.483Z,4.00
2022-10-18T05:45:11.474Z,4.00
2022-10-18T05:46:15.030Z,4.00
2022-10-18T05:47:11.494Z,4.00
2022-10-18T05:48:11.485Z,4.00
2022-10-18T05:49:11.477Z,4.00
2022-10-18T05:50:11.467Z,4.00
2022-10-18T05:51:11.492Z,4.00
2022-10-18T05:52:11.476Z,4.00
2022-10-18T05:53:31.773Z,4.00
2022-10-18T05:54:11.475Z,4.00
2022-10-18T05:55:11.478Z,4.00
2022-10-18T05:56:11.476Z,4.00
2022-10-18T05:57:11.473Z,4.00
2022-10-18T05:58:11.469Z,4.00
2022-10-18T05:59:11.472Z,4.00
2022-10-18T06:00:11.465Z,4.00
2022-10-18T06:01:11.470Z,4.00
2022-10-18T06:02:11.550Z,0.00
2022-10-18T06:03:11.471Z,0.00
2022-10-18T06:04:11.466Z,0.00
2022-10-18T06:05:11.456Z,0.00
2022-10-18T06:06:11.456Z,0.00
2022-10-18T06:07:11.477Z,0.00
2022-10-18T06:08:11.459Z,0.00
2022-10-18T06:09:11.468Z,0.00
2022-10-18T06:10:11.461Z,0.00
2022-10-18T06:11:11.455Z,0.00
2022-10-18T06:12:11.457Z,0.00
2022-10-18T06:13:11.459Z,0.00
2022-10-18T06:14:11.459Z,0.00
2022-10-18T06:15:11.466Z,0.00
2022-10-18T06:16:11.479Z,0.00
2022-10-18T06:17:11.456Z,0.00
2022-10-18T06:18:11.457Z,0.00
2022-10-18T06:19:11.501Z,0.00
2022-10-18T06:20:11.451Z,0.00
2022-10-18T06:21:11.451Z,0.00
2022-10-18T06:22:11.450Z,4.00
2022-10-18T06:23:11.476Z,4.00
2022-10-18T06:24:11.441Z,4.00
2022-10-18T06:25:11.463Z,4.00
2022-10-18T06:26:11.447Z,4.00
2022-10-18T06:27:11.454Z,4.00
2022-10-18T06:28:12.270Z,4.00
2022-10-18T06:29:11.605Z,4.00
2022-10-18T06:30:11.437Z,4.00
2022-10-18T06:31:11.436Z,4.00
2022-10-18T06:32:11.443Z,4.00
2022-10-18T06:33:11.454Z,4.00
2022-10-18T06:34:11.441Z,8.00
2022-10-18T06:35:11.448Z,8.00
2022-10-18T06:36:11.448Z,4.00
2022-10-18T06:37:11.442Z,4.00
2022-10-18T06:38:11.432Z,8.00
2022-10-18T06:39:11.465Z,8.00
2022-10-18T06:40:11.430Z,8.00
2022-10-18T06:41:11.479Z,8.00
2022-10-18T06:42:11.435Z,8.00
2022-10-18T06:43:20.652Z,8.00
2022-10-18T06:44:11.428Z,8.00
2022-10-18T06:45:11.430Z,8.00
2022-10-18T06:46:11.438Z,8.00
2022-10-18T06:47:11.427Z,12.00
2022-10-18T06:48:11.451Z,8.00
2022-10-18T06:49:13.103Z,8.00
2022-10-18T06:50:11.481Z,8.00
2022-10-18T06:51:11.483Z,8.00
2022-10-18T06:52:11.433Z,8.00
2022-10-18T06:53:11.421Z,12.00
2022-10-18T06:54:17.918Z,12.00
2022-10-18T06:55:11.438Z,8.00
2022-10-18T06:56:11.427Z,12.00
2022-10-18T06:57:11.428Z,12.00
2022-10-18T06:58:11.418Z,16.00
2022-10-18T06:59:11.419Z,12.00
2022-10-18T07:00:11.414Z,12.00
2022-10-18T07:01:11.465Z,12.00
2022-10-18T07:02:11.446Z,16.00
2022-10-18T07:03:11.422Z,12.00
2022-10-18T07:04:11.426Z,12.00
2022-10-18T07:05:11.432Z,12.00
2022-10-18T07:06:11.421Z,12.00
2022-10-18T07:07:11.432Z,12.00
2022-10-18T07:08:11.421Z,12.00
2022-10-18T07:09:11.410Z,12.00
2022-10-18T07:10:13.050Z,12.00
2022-10-18T07:11:11.434Z,16.00
2022-10-18T07:12:11.404Z,12.00
2022-10-18T07:13:31.493Z,16.00
2022-10-18T07:14:16.063Z,16.00
2022-10-18T07:15:11.416Z,16.00
2022-10-18T07:16:14.177Z,16.00
2022-10-18T07:17:11.409Z,16.00
2022-10-18T07:18:11.413Z,16.00
2022-10-18T07:19:11.401Z,16.00
2022-10-18T07:20:11.399Z,16.00
2022-10-18T07:21:11.406Z,16.00
2022-10-18T07:22:11.404Z,16.00
2022-10-18T07:23:11.416Z,12.00
2022-10-18T07:24:11.416Z,8.00
2022-10-18T07:25:11.408Z,12.00
2022-10-18T07:26:11.395Z,8.00
2022-10-18T07:27:11.429Z,8.00
2022-10-18T07:28:11.408Z,8.00
2022-10-18T07:29:11.425Z,8.00
2022-10-18T07:30:11.409Z,8.00
2022-10-18T07:31:11.401Z,8.00
2022-10-18T07:32:11.405Z,8.00
2022-10-18T07:33:11.396Z,12.00
2022-10-18T07:34:11.400Z,8.00
2022-10-18T07:36:11.386Z,8.00
2022-10-18T07:37:11.398Z,8.00
2022-10-18T07:38:11.482Z,12.00
2022-10-18T07:39:11.399Z,12.00
2022-10-18T07:40:11.394Z,12.00
2022-10-18T07:41:11.383Z,12.00
2022-10-18T07:42:11.384Z,16.00
2022-10-18T07:43:12.256Z,20.00
2022-10-18T07:44:11.392Z,24.00
2022-10-18T07:45:11.381Z,28.00
2022-10-18T07:46:11.378Z,36.00
2022-10-18T07:47:11.383Z,44.00
2022-10-18T07:48:11.378Z,48.00
2022-10-18T07:49:11.371Z,52.00
2022-10-18T07:50:11.383Z,56.00
2022-10-18T07:51:11.374Z,52.00
2022-10-18T07:52:11.391Z,52.00
2022-10-18T07:53:11.390Z,44.00
2022-10-18T07:54:11.377Z,40.00
2022-10-18T07:55:11.383Z,40.00
2022-10-18T07:56:11.380Z,40.00
2022-10-18T07:57:11.377Z,40.00
2022-10-18T07:58:11.370Z,40.00
2022-10-18T07:59:11.389Z,40.00
2022-10-18T08:00:11.364Z,40.00
2022-10-18T08:01:11.476Z,36.00
2022-10-18T08:02:11.374Z,36.00
2022-10-18T08:03:11.363Z,32.00
2022-10-18T08:04:16.112Z,32.00
2022-10-18T08:05:11.367Z,28.00
2022-10-18T08:06:11.374Z,28.00
2022-10-18T08:07:11.371Z,28.00
2022-10-18T08:08:11.445Z,24.00
2022-10-18T08:09:11.369Z,28.00
2022-10-18T08:10:11.370Z,24.00
2022-10-18T08:11:11.355Z,20.00
2022-10-18T08:12:11.363Z,24.00
2022-10-18T08:13:11.353Z,20.00
2022-10-18T08:14:11.360Z,24.00
2022-10-18T08:15:11.369Z,28.00
2022-10-18T08:16:11.359Z,32.00
2022-10-18T08:17:11.360Z,36.00
2022-10-18T08:18:11.370Z,44.00
2022-10-18T08:19:11.354Z,44.00
2022-10-18T08:20:29.485Z,48.00
2022-10-18T08:21:11.355Z,52.00
2022-10-18T08:22:11.354Z,52.00
2022-10-18T08:23:11.348Z,56.00
2022-10-18T08:24:11.348Z,64.00
2022-10-18T08:25:11.359Z,68.00
2022-10-18T08:26:11.354Z,76.00
2022-10-18T08:27:11.344Z,84.00
2022-10-18T08:28:11.339Z,80.00
2022-10-18T08:29:22.409Z,80.00
2022-10-18T08:30:11.352Z,80.00
2022-10-18T08:31:11.365Z,84.00
2022-10-18T08:32:11.347Z,84.00
2022-10-18T08:33:11.340Z,84.00
2022-10-18T08:34:14.774Z,84.00
2022-10-18T08:35:11.347Z,92.00
2022-10-18T08:36:11.349Z,96.00
2022-10-18T08:37:11.337Z,108.00
2022-10-18T08:38:15.178Z,124.00
2022-10-18T08:39:11.330Z,140.00
2022-10-18T08:40:11.338Z,156.00
2022-10-18T08:41:11.335Z,172.00
2022-10-18T08:42:11.330Z,176.00
2022-10-18T08:43:11.332Z,172.00
2022-10-18T08:44:11.333Z,164.00
2022-10-18T08:45:23.315Z,148.00
2022-10-18T08:46:11.333Z,140.00
2022-10-18T08:47:11.347Z,148.00
2022-10-18T08:48:11.337Z,152.00
2022-10-18T08:49:11.329Z,152.00
2022-10-18T08:50:11.318Z,148.00
2022-10-18T08:51:11.327Z,140.00
2022-10-18T08:52:11.324Z,132.00
2022-10-18T08:53:11.461Z,120.00
2022-10-18T08:54:11.323Z,112.00
2022-10-18T08:55:11.322Z,104.00
2022-10-18T08:56:11.313Z,100.00
2022-10-18T08:57:11.313Z,100.00
2022-10-18T08:58:11.370Z,100.00
2022-10-18T08:59:11.324Z,100.00
2022-10-18T09:00:11.315Z,100.00
2022-10-18T09:01:11.370Z,96.00
2022-10-18T09:02:11.312Z,92.00
2022-10-18T09:03:11.412Z,88.00
2022-10-18T09:04:11.314Z,88.00
2022-10-18T09:05:11.308Z,96.00
2022-10-18T09:06:11.312Z,96.00
2022-10-18T09:07:11.309Z,100.00
2022-10-18T09:08:11.315Z,108.00
2022-10-18T09:09:11.312Z,108.00
2022-10-18T09:10:11.417Z,120.00
2022-10-18T09:11:11.305Z,124.00
2022-10-18T09:12:11.313Z,120.00
2022-10-18T09:13:11.316Z,120.00
2022-10-18T09:14:11.306Z,108.00
2022-10-18T09:15:11.296Z,100.00
2022-10-18T09:16:11.294Z,100.00
2022-10-18T09:17:15.827Z,100.00
2022-10-18T09:18:11.303Z,96.00
2022-10-18T09:19:11.318Z,108.00
2022-10-18T09:20:11.324Z,104.00
2022-10-18T09:21:11.321Z,104.00
2022-10-18T09:22:11.311Z,100.00
2022-10-18T09:23:11.320Z,96.00
2022-10-18T09:24:11.303Z,88.00
2022-10-18T09:25:11.311Z,84.00
2022-10-18T09:26:11.296Z,92.00
2022-10-18T09:27:11.283Z,100.00
2022-10-18T09:28:11.296Z,112.00
2022-10-18T09:29:11.410Z,128.00
2022-10-18T09:30:11.293Z,132.00
2022-10-18T09:31:11.280Z,132.00
2022-10-18T09:32:11.282Z,132.00
2022-10-18T09:33:11.304Z,136.00
2022-10-18T09:34:11.300Z,132.00
2022-10-18T09:35:11.337Z,152.00
2022-10-18T09:36:11.279Z,156.00
2022-10-18T09:37:11.290Z,172.00
2022-10-18T09:38:11.281Z,192.00
2022-10-18T09:39:11.290Z,204.00
2022-10-18T09:40:14.003Z,204.00
2022-10-18T09:41:11.278Z,220.00
2022-10-18T09:42:11.278Z,228.00
2022-10-18T09:43:11.280Z,200.00
2022-10-18T09:44:11.293Z,188.00
2022-10-18T09:45:11.271Z,188.00
2022-10-18T09:46:11.279Z,208.00
2022-10-18T09:47:14.563Z,216.00
2022-10-18T09:48:11.273Z,224.00
2022-10-18T09:49:14.280Z,236.00
2022-10-18T09:50:11.279Z,216.00
2022-10-18T09:51:11.281Z,216.00
2022-10-18T09:52:11.261Z,220.00
2022-10-18T09:53:11.289Z,204.00
2022-10-18T09:54:11.308Z,212.00
2022-10-18T09:55:11.283Z,216.00
2022-10-18T09:56:11.255Z,228.00
2022-10-18T09:57:11.255Z,248.00
2022-10-18T09:58:11.258Z,240.00
2022-10-18T09:59:11.260Z,244.00
2022-10-18T10:00:11.274Z,232.00
2022-10-18T10:01:11.269Z,236.00
2022-10-18T10:02:11.281Z,224.00
2022-10-18T10:03:11.248Z,224.00
2022-10-18T10:04:11.260Z,244.00
2022-10-18T10:06:11.266Z,280.00
2022-10-18T10:07:11.268Z,292.00
2022-10-18T10:08:11.258Z,228.00
2022-10-18T10:09:11.244Z,196.00
2022-10-18T10:10:11.242Z,168.00
2022-10-18T10:11:11.246Z,132.00
2022-10-18T10:12:11.259Z,100.00
2022-10-18T10:13:11.241Z,88.00
2022-10-18T10:14:11.301Z,84.00
2022-10-18T10:15:11.238Z,88.00
2022-10-18T10:16:11.244Z,104.00
2022-10-18T10:17:11.585Z,124.00
2022-10-18T10:18:11.240Z,136.00
2022-10-18T10:19:11.232Z,152.00
2022-10-18T10:20:11.246Z,152.00
2022-10-18T10:21:11.238Z,168.00
2022-10-18T10:22:11.233Z,176.00
2022-10-18T10:23:11.307Z,160.00
2022-10-18T10:24:11.240Z,156.00
2022-10-18T10:25:11.238Z,164.00
2022-10-18T10:26:11.267Z,180.00
2022-10-18T10:27:11.236Z,140.00
2022-10-18T10:28:11.231Z,128.00
2022-10-18T10:29:17.630Z,128.00
2022-10-18T10:30:11.247Z,192.00
2022-10-18T10:31:11.234Z,232.00
2022-10-18T10:32:11.414Z,252.00
2022-10-18T10:33:11.228Z,308.00
2022-10-18T10:34:11.222Z,344.00
2022-10-18T10:35:17.479Z,364.00
2022-10-18T10:36:11.233Z,348.00
2022-10-18T10:37:11.225Z,340.00
2022-10-18T10:38:11.227Z,344.00
2022-10-18T10:39:11.240Z,328.00
2022-10-18T10:40:18.334Z,268.00
2022-10-18T10:41:11.216Z,196.00
2022-10-18T10:42:11.549Z,168.00
2022-10-18T10:43:32.918Z,152.00
2022-10-18T10:44:11.210Z,152.00
2022-10-18T10:45:11.211Z,164.00
2022-10-18T10:46:11.219Z,148.00
2022-10-18T10:47:11.232Z,168.00
2022-10-18T10:48:11.208Z,244.00
2022-10-18T10:49:38.733Z,340.00
2022-10-18T10:50:11.208Z,332.00
2022-10-18T10:51:11.205Z,276.00
2022-10-18T10:52:26.196Z,284.00
2022-10-18T10:53:11.209Z,228.00
2022-10-18T10:54:11.205Z,204.00
2022-10-18T10:55:30.740Z,160.00
2022-10-18T10:56:14.070Z,140.00
2022-10-18T10:57:11.233Z,140.00
2022-10-18T10:58:11.204Z,156.00
2022-10-18T10:59:11.315Z,168.00
2022-10-18T11:00:11.204Z,180.00
2022-10-18T11:01:11.430Z,216.00
2022-10-18T11:02:11.214Z,256.00
2022-10-18T11:03:28.083Z,280.00
2022-10-18T11:04:11.336Z,284.00
2022-10-18T11:05:11.204Z,244.00
2022-10-18T11:06:11.193Z,216.00
2022-10-18T11:07:11.193Z,212.00
2022-10-18T11:08:11.184Z,192.00
2022-10-18T11:09:11.190Z,172.00
2022-10-18T11:10:11.189Z,176.00
2022-10-18T11:11:11.204Z,172.00
2022-10-18T11:12:11.186Z,168.00
2022-10-18T11:13:11.188Z,172.00
2022-10-18T11:14:25.191Z,184.00
2022-10-18T11:15:11.184Z,224.00
2022-10-18T11:16:11.186Z,244.00
2022-10-18T11:17:11.188Z,264.00
2022-10-18T11:18:11.179Z,324.00
2022-10-18T11:19:11.183Z,320.00
2022-10-18T11:20:11.289Z,280.00
2022-10-18T11:21:11.180Z,388.00
2022-10-18T11:22:11.173Z,516.00
2022-10-18T11:23:11.171Z,544.00
2022-10-18T11:24:11.178Z,528.00
2022-10-18T11:25:11.173Z,504.00
2022-10-18T11:26:11.168Z,512.00
2022-10-18T11:27:11.186Z,488.00
2022-10-18T11:28:11.177Z,448.00
2022-10-18T11:29:11.172Z,388.00
2022-10-18T11:30:11.286Z,300.00
2022-10-18T11:31:11.165Z,288.00
2022-10-18T11:32:11.162Z,276.00
2022-10-18T11:33:11.169Z,276.00
2022-10-18T11:34:11.179Z,272.00
2022-10-18T11:35:11.174Z,344.00
2022-10-18T11:36:11.234Z,352.00
2022-10-18T11:37:29.452Z,288.00
2022-10-18T11:38:11.180Z,244.00
2022-10-18T11:39:11.156Z,188.00
2022-10-18T11:40:11.258Z,152.00
2022-10-18T11:41:11.162Z,124.00
2022-10-18T11:42:11.164Z,112.00
2022-10-18T11:43:11.180Z,104.00
2022-10-18T11:44:11.169Z,108.00
2022-10-18T11:45:11.152Z,144.00
2022-10-18T11:46:11.147Z,176.00
2022-10-18T11:47:11.148Z,188.00
2022-10-18T11:48:11.152Z,228.00
2022-10-18T11:49:11.187Z,284.00
2022-10-18T11:50:11.183Z,328.00
2022-10-18T11:51:11.157Z,308.00
2022-10-18T11:52:11.149Z,288.00
2022-10-18T11:53:11.141Z,320.00
2022-10-18T11:54:11.152Z,336.00
2022-10-18T11:55:11.151Z,328.00
2022-10-18T11:56:11.148Z,492.00
2022-10-18T11:57:11.144Z,612.00
2022-10-18T11:58:11.139Z,580.00
2022-10-18T11:59:11.181Z,552.00
2022-10-18T12:00:11.199Z,516.00
2022-10-18T12:01:11.141Z,480.00
2022-10-18T12:02:11.175Z,496.00
2022-10-18T12:03:11.227Z,576.00
2022-10-18T12:04:11.135Z,528.00
2022-10-18T12:05:23.066Z,432.00
2022-10-18T12:06:11.134Z,360.00
2022-10-18T12:07:11.129Z,296.00
2022-10-18T12:08:11.137Z,280.00
2022-10-18T12:09:11.134Z,336.00
2022-10-18T12:10:11.154Z,368.00
2022-10-18T12:11:11.132Z,468.00
2022-10-18T12:12:11.125Z,476.00
2022-10-18T12:13:11.129Z,352.00
2022-10-18T12:14:11.124Z,300.00
2022-10-18T12:15:11.143Z,292.00
2022-10-18T12:16:11.126Z,276.00
2022-10-18T12:17:40.839Z,260.00
2022-10-18T12:18:11.126Z,248.00
2022-10-18T12:19:11.131Z,212.00
2022-10-18T12:20:11.131Z,196.00
2022-10-18T12:21:11.126Z,176.00
2022-10-18T12:22:11.133Z,160.00
2022-10-18T12:23:11.114Z,164.00
2022-10-18T12:24:11.113Z,168.00
2022-10-18T12:25:11.120Z,180.00
2022-10-18T12:26:11.117Z,184.00
2022-10-18T12:27:11.108Z,180.00
2022-10-18T12:28:11.117Z,168.00
2022-10-18T12:29:11.122Z,164.00
2022-10-18T12:30:11.253Z,160.00
2022-10-18T12:31:11.125Z,160.00
2022-10-18T12:32:11.104Z,164.00
2022-10-18T12:33:27.359Z,192.00
2022-10-18T12:34:11.111Z,220.00
2022-10-18T12:35:11.111Z,320.00
2022-10-18T12:36:11.106Z,328.00
2022-10-18T12:37:11.119Z,332.00
2022-10-18T12:38:11.107Z,336.00
2022-10-18T12:39:11.104Z,340.00
2022-10-18T12:40:13.479Z,392.00
2022-10-18T12:41:11.116Z,460.00
2022-10-18T12:42:11.115Z,464.00
2022-10-18T12:43:11.118Z,428.00
2022-10-18T12:44:11.100Z,428.00
2022-10-18T12:45:11.105Z,384.00
2022-10-18T12:46:13.736Z,348.00
2022-10-18T12:47:11.122Z,388.00
2022-10-18T12:48:11.097Z,360.00
2022-10-18T12:49:11.089Z,368.00
2022-10-18T12:50:11.095Z,340.00
2022-10-18T12:51:11.088Z,296.00
2022-10-18T12:52:11.085Z,288.00
2022-10-18T12:53:11.093Z,284.00
2022-10-18T12:54:11.092Z,260.00
2022-10-18T12:55:15.289Z,288.00
2022-10-18T12:56:11.102Z,316.00
2022-10-18T12:57:11.091Z,348.00
2022-10-18T12:58:11.086Z,352.00
2022-10-18T12:59:11.088Z,360.00
2022-10-18T13:00:11.089Z,372.00
2022-10-18T13:01:11.147Z,396.00